This is the latest recevied weather packets stored in our database for station/object OK1VCF-5. If no packets are shown the sender has not sent any weather packets the latest 10 day(s).
| Time | Temp. | Humidity | Pressure | Rain* | Wind** | Luminosity | Snow |
|---|---|---|---|---|---|---|---|
| 1777793229 | 21.11° C | 41% | 1021.4 hPa | - | - | - | - |
| 1777792325 | 18.89° C | 44% | 1021.6 hPa | - | - | - | - |
| 1777791423 | 17.78° C | 46% | 1022 hPa | - | - | - | - |
| 1777790525 | 16.67° C | 49% | 1021.9 hPa | - | - | - | - |
| 1777790524 | 16.67° C | 49% | 1021.9 hPa | - | - | - | - |
| 1777789624 | 16.11° C | 53% | 1022 hPa | - | - | - | - |
| 1777788723 | 14.44° C | 59% | 1022 hPa | - | - | - | - |
| 1777787821 | 12.22° C | 65% | 1022.2 hPa | - | - | - | - |
| 1777786921 | 10° C | 68% | 1022.2 hPa | - | - | - | - |
| 1777785120 | 8.89° C | 70% | 1022.4 hPa | - | - | - | - |
| 1777784217 | 7.78° C | 74% | 1022.4 hPa | - | - | - | - |
| 1777783318 | 6.67° C | 76% | 1022.6 hPa | - | - | - | - |
| 1777782449 | 6.67° C | 75% | 1022.4 hPa | - | - | - | - |
| 1777782415 | 6.67° C | 75% | 1022.4 hPa | - | - | - | - |
| 1777781517 | 6.11° C | 76% | 1022.2 hPa | - | - | - | - |
| 1777781516 | 6.11° C | 76% | 1022.2 hPa | - | - | - | - |
| 1777780616 | 5.56° C | 76% | 1022.4 hPa | - | - | - | - |
| 1777779713 | 5.56° C | 77% | 1022.5 hPa | - | - | - | - |
| 1777778820 | 5.56° C | 77% | 1022.4 hPa | - | - | - | - |
| 1777777944 | 5.56° C | 76% | 1022.4 hPa | - | - | - | - |
| 1777777913 | 5.56° C | 76% | 1022.4 hPa | - | - | - | - |
| 1777777011 | 6.11° C | 75% | 1022.4 hPa | - | - | - | - |
| 1777776112 | 6.67° C | 74% | 1022.4 hPa | - | - | - | - |
| 1777775209 | 6.67° C | 72% | 1022.4 hPa | - | - | - | - |
| 1777774310 | 6.67° C | 72% | 1022.3 hPa | - | - | - | - |
* Rain since midnight (hover to see other rain measurements)
** Current wind speed in m/s (hover to see current wind gust speed)